createdAt,value
2022-10-05T00:00:08.920Z,954.52
2022-10-05T00:00:18.920Z,954.52
2022-10-05T00:00:28.921Z,954.52
2022-10-05T00:00:38.939Z,954.51
2022-10-05T00:00:48.923Z,954.51
2022-10-05T00:00:58.957Z,954.51
2022-10-05T00:01:08.928Z,954.51
2022-10-05T00:01:18.957Z,954.50
2022-10-05T00:01:28.998Z,954.50
2022-10-05T00:01:38.977Z,954.50
2022-10-05T00:01:48.974Z,954.49
2022-10-05T00:01:59.009Z,954.49
2022-10-05T00:02:08.976Z,954.48
2022-10-05T00:02:18.930Z,954.49
2022-10-05T00:02:28.933Z,954.48
2022-10-05T00:02:38.940Z,954.48
2022-10-05T00:02:48.938Z,954.48
2022-10-05T00:02:58.935Z,954.48
2022-10-05T00:03:08.935Z,954.48
2022-10-05T00:03:18.936Z,954.48
2022-10-05T00:03:28.942Z,954.47
2022-10-05T00:03:38.942Z,954.47
2022-10-05T00:03:48.967Z,954.47
2022-10-05T00:03:58.987Z,954.47
2022-10-05T00:04:08.984Z,954.45
2022-10-05T00:04:18.955Z,954.45
2022-10-05T00:04:28.954Z,954.45
2022-10-05T00:04:38.952Z,954.45
2022-10-05T00:04:48.987Z,954.45
2022-10-05T00:04:59.003Z,954.45
2022-10-05T00:05:09.035Z,954.45
2022-10-05T00:05:19.021Z,954.44
2022-10-05T00:05:29.017Z,954.44
2022-10-05T00:05:38.976Z,954.44
2022-10-05T00:05:48.948Z,954.44
2022-10-05T00:05:58.956Z,954.43
2022-10-05T00:06:08.952Z,954.43
2022-10-05T00:06:18.953Z,954.42
2022-10-05T00:06:28.951Z,954.42
2022-10-05T00:06:38.957Z,954.41
2022-10-05T00:06:49.186Z,954.41
2022-10-05T00:06:58.955Z,954.41
2022-10-05T00:07:08.955Z,954.41
2022-10-05T00:07:18.959Z,954.40
2022-10-05T00:07:28.957Z,954.40
2022-10-05T00:07:38.958Z,954.40
2022-10-05T00:07:48.957Z,954.40
2022-10-05T00:07:58.966Z,954.40
2022-10-05T00:08:08.961Z,954.39
2022-10-05T00:08:18.965Z,954.39
2022-10-05T00:08:28.963Z,954.39
2022-10-05T00:08:38.963Z,954.39
2022-10-05T00:08:48.964Z,954.39
2022-10-05T00:08:58.970Z,954.38
2022-10-05T00:09:08.965Z,954.38
2022-10-05T00:09:18.956Z,954.39
2022-10-05T00:09:28.965Z,954.38
2022-10-05T00:09:38.967Z,954.37
2022-10-05T00:09:48.968Z,954.37
2022-10-05T00:09:58.954Z,954.38
2022-10-05T00:10:08.970Z,954.37
2022-10-05T00:10:18.970Z,954.37
2022-10-05T00:10:28.972Z,954.37
2022-10-05T00:10:38.974Z,954.36
2022-10-05T00:10:48.977Z,954.37
2022-10-05T00:10:58.986Z,954.36
2022-10-05T00:11:08.975Z,954.36
2022-10-05T00:11:18.978Z,954.35
2022-10-05T00:11:28.978Z,954.35
2022-10-05T00:11:38.979Z,954.34
2022-10-05T00:11:49.044Z,954.34
2022-10-05T00:11:59.003Z,954.35
2022-10-05T00:12:08.988Z,954.35
2022-10-05T00:12:18.987Z,954.35
2022-10-05T00:12:28.989Z,954.35
2022-10-05T00:12:38.987Z,954.36
2022-10-05T00:12:48.988Z,954.36
2022-10-05T00:12:58.987Z,954.35
2022-10-05T00:13:08.997Z,954.36
2022-10-05T00:13:18.988Z,954.36
2022-10-05T00:13:28.993Z,954.37
2022-10-05T00:13:38.990Z,954.37
2022-10-05T00:13:48.990Z,954.37
2022-10-05T00:13:59.002Z,954.37
2022-10-05T00:14:09.005Z,954.37
2022-10-05T00:14:18.993Z,954.38
2022-10-05T00:14:29.000Z,954.39
2022-10-05T00:14:38.994Z,954.39
2022-10-05T00:14:49.011Z,954.39
2022-10-05T00:14:59.013Z,954.39
2022-10-05T00:15:09.007Z,954.40
2022-10-05T00:15:19.003Z,954.40
2022-10-05T00:15:29.002Z,954.39
2022-10-05T00:15:39.002Z,954.40
2022-10-05T00:15:49.005Z,954.40
2022-10-05T00:15:59.005Z,954.40
2022-10-05T00:16:09.059Z,954.40
2022-10-05T00:16:19.033Z,954.39
2022-10-05T00:16:29.027Z,954.39
2022-10-05T00:16:39.065Z,954.37
2022-10-05T00:16:49.720Z,954.37
2022-10-05T00:16:59.143Z,954.37
2022-10-05T00:17:09.011Z,954.37
2022-10-05T00:17:19.013Z,954.37
2022-10-05T00:17:29.013Z,954.38
2022-10-05T00:17:39.013Z,954.38
2022-10-05T00:17:49.016Z,954.39
2022-10-05T00:17:58.998Z,954.39
2022-10-05T00:18:09.018Z,954.39
2022-10-05T00:18:19.015Z,954.39
2022-10-05T00:18:29.000Z,954.39
2022-10-05T00:18:39.026Z,954.38
2022-10-05T00:18:49.017Z,954.38
2022-10-05T00:18:59.025Z,954.38
2022-10-05T00:19:09.010Z,954.38
2022-10-05T00:19:19.020Z,954.38
2022-10-05T00:19:29.021Z,954.37
2022-10-05T00:19:39.023Z,954.37
2022-10-05T00:19:49.024Z,954.37
2022-10-05T00:19:59.024Z,954.36
2022-10-05T00:20:09.026Z,954.36
2022-10-05T00:20:19.025Z,954.36
2022-10-05T00:20:29.026Z,954.35
2022-10-05T00:20:39.027Z,954.34
2022-10-05T00:20:49.039Z,954.33
2022-10-05T00:20:59.029Z,954.32
2022-10-05T00:21:09.035Z,954.32
2022-10-05T00:21:19.037Z,954.31
2022-10-05T00:21:29.034Z,954.30
2022-10-05T00:21:39.034Z,954.29
2022-10-05T00:21:49.034Z,954.29
2022-10-05T00:21:59.036Z,954.28
2022-10-05T00:22:09.038Z,954.27
2022-10-05T00:22:19.043Z,954.27
2022-10-05T00:22:29.039Z,954.27
2022-10-05T00:22:39.043Z,954.26
2022-10-05T00:22:49.041Z,954.26
2022-10-05T00:22:59.040Z,954.25
2022-10-05T00:23:09.042Z,954.25
2022-10-05T00:23:19.046Z,954.24
2022-10-05T00:23:29.051Z,954.24
2022-10-05T00:23:39.045Z,954.23
2022-10-05T00:23:49.046Z,954.22
2022-10-05T00:23:59.047Z,954.21
2022-10-05T00:24:09.049Z,954.20
2022-10-05T00:24:19.048Z,954.20
2022-10-05T00:24:29.049Z,954.20
2022-10-05T00:24:39.050Z,954.20
2022-10-05T00:24:49.049Z,954.19
2022-10-05T00:24:59.051Z,954.18
2022-10-05T00:25:09.055Z,954.17
2022-10-05T00:25:19.054Z,954.16
2022-10-05T00:25:29.055Z,954.16
2022-10-05T00:25:39.053Z,954.15
2022-10-05T00:25:49.061Z,954.15
2022-10-05T00:25:59.056Z,954.15
2022-10-05T00:26:09.058Z,954.15
2022-10-05T00:26:19.062Z,954.14
2022-10-05T00:26:29.061Z,954.14
2022-10-05T00:26:39.062Z,954.15
2022-10-05T00:26:52.722Z,954.15
2022-10-05T00:27:00.072Z,954.15
2022-10-05T00:27:09.072Z,954.15
2022-10-05T00:27:19.066Z,954.16
2022-10-05T00:27:29.069Z,954.17
2022-10-05T00:27:39.070Z,954.16
2022-10-05T00:27:49.070Z,954.17
2022-10-05T00:27:59.126Z,954.17
2022-10-05T00:28:09.167Z,954.17
2022-10-05T00:28:19.099Z,954.18
2022-10-05T00:28:29.187Z,954.19
2022-10-05T00:28:39.074Z,954.18
2022-10-05T00:28:49.079Z,954.18
2022-10-05T00:28:59.078Z,954.19
2022-10-05T00:29:09.079Z,954.19
2022-10-05T00:29:19.080Z,954.19
2022-10-05T00:29:29.063Z,954.19
2022-10-05T00:29:39.082Z,954.18
2022-10-05T00:29:49.085Z,954.19
2022-10-05T00:29:59.084Z,954.19
2022-10-05T00:30:09.066Z,954.19
2022-10-05T00:30:19.084Z,954.19
2022-10-05T00:30:29.087Z,954.19
2022-10-05T00:30:39.086Z,954.18
2022-10-05T00:30:49.090Z,954.17
2022-10-05T00:30:59.107Z,954.18
2022-10-05T00:31:09.090Z,954.18
2022-10-05T00:31:19.136Z,954.18
2022-10-05T00:31:29.123Z,954.17
2022-10-05T00:31:39.181Z,954.17
2022-10-05T00:31:49.138Z,954.18
2022-10-05T00:31:59.174Z,954.18
2022-10-05T00:32:09.188Z,954.18
2022-10-05T00:32:19.083Z,954.19
2022-10-05T00:32:29.106Z,954.18
2022-10-05T00:32:39.104Z,954.18
2022-10-05T00:32:49.098Z,954.19
2022-10-05T00:32:59.964Z,954.18
2022-10-05T00:33:09.099Z,954.18
2022-10-05T00:33:19.100Z,954.18
2022-10-05T00:33:29.100Z,954.19
2022-10-05T00:33:39.104Z,954.19
2022-10-05T00:33:49.101Z,954.19
2022-10-05T00:33:59.108Z,954.19
2022-10-05T00:34:09.103Z,954.19
2022-10-05T00:34:19.104Z,954.17
2022-10-05T00:34:29.106Z,954.18
2022-10-05T00:34:39.106Z,954.18
2022-10-05T00:34:49.108Z,954.18
2022-10-05T00:34:59.117Z,954.19
2022-10-05T00:35:09.109Z,954.18
2022-10-05T00:35:19.111Z,954.17
2022-10-05T00:35:29.125Z,954.17
2022-10-05T00:35:39.112Z,954.18
2022-10-05T00:35:49.118Z,954.18
2022-10-05T00:35:59.116Z,954.18
2022-10-05T00:36:09.117Z,954.18
2022-10-05T00:36:19.123Z,954.17
2022-10-05T00:36:29.119Z,954.17
2022-10-05T00:36:39.129Z,954.17
2022-10-05T00:36:49.550Z,954.18
2022-10-05T00:36:59.120Z,954.18
2022-10-05T00:37:09.120Z,954.18
2022-10-05T00:37:19.122Z,954.18
2022-10-05T00:37:29.126Z,954.18
2022-10-05T00:37:39.124Z,954.18
2022-10-05T00:37:49.128Z,954.18
2022-10-05T00:37:59.109Z,954.17
2022-10-05T00:38:09.128Z,954.18
2022-10-05T00:38:19.131Z,954.19
2022-10-05T00:38:29.131Z,954.19
2022-10-05T00:38:39.136Z,954.19
2022-10-05T00:38:49.137Z,954.19
2022-10-05T00:38:59.135Z,954.20
2022-10-05T00:39:09.137Z,954.20
2022-10-05T00:39:19.136Z,954.20
2022-10-05T00:39:29.138Z,954.21
2022-10-05T00:39:39.138Z,954.21
2022-10-05T00:39:49.141Z,954.20
2022-10-05T00:39:59.141Z,954.19
2022-10-05T00:40:09.144Z,954.20
2022-10-05T00:40:19.145Z,954.20
2022-10-05T00:40:29.145Z,954.21
2022-10-05T00:40:39.144Z,954.21
2022-10-05T00:40:49.147Z,954.22
2022-10-05T00:40:59.146Z,954.22
2022-10-05T00:41:09.151Z,954.23
2022-10-05T00:41:19.148Z,954.23
2022-10-05T00:41:29.160Z,954.23
2022-10-05T00:41:39.148Z,954.23
2022-10-05T00:41:49.152Z,954.24
2022-10-05T00:41:59.151Z,954.25
2022-10-05T00:42:09.154Z,954.25
2022-10-05T00:42:19.156Z,954.25
2022-10-05T00:42:29.154Z,954.26
2022-10-05T00:42:39.158Z,954.26
2022-10-05T00:42:49.155Z,954.26
2022-10-05T00:42:59.154Z,954.26
2022-10-05T00:43:09.160Z,954.26
2022-10-05T00:43:19.158Z,954.26
2022-10-05T00:43:29.159Z,954.27
2022-10-05T00:43:39.159Z,954.27
2022-10-05T00:43:49.164Z,954.28
2022-10-05T00:43:59.161Z,954.27
2022-10-05T00:44:09.160Z,954.28
2022-10-05T00:44:19.164Z,954.28
2022-10-05T00:44:29.163Z,954.28
2022-10-05T00:44:39.164Z,954.28
2022-10-05T00:44:49.187Z,954.29
2022-10-05T00:44:59.167Z,954.29
2022-10-05T00:45:09.173Z,954.29
2022-10-05T00:45:19.172Z,954.29
2022-10-05T00:45:29.202Z,954.29
2022-10-05T00:45:39.198Z,954.28
2022-10-05T00:45:49.223Z,954.28
2022-10-05T00:45:59.255Z,954.29
2022-10-05T00:46:09.280Z,954.28
2022-10-05T00:46:19.261Z,954.27
2022-10-05T00:46:29.176Z,954.28
2022-10-05T00:46:39.178Z,954.29
2022-10-05T00:46:49.287Z,954.29
2022-10-05T00:46:59.177Z,954.29
2022-10-05T00:47:09.180Z,954.29
2022-10-05T00:47:19.179Z,954.29
2022-10-05T00:47:29.178Z,954.30
2022-10-05T00:47:39.180Z,954.29
2022-10-05T00:47:49.165Z,954.29
2022-10-05T00:47:59.182Z,954.28
2022-10-05T00:48:09.186Z,954.28
2022-10-05T00:48:19.189Z,954.27
2022-10-05T00:48:29.187Z,954.27
2022-10-05T00:48:39.194Z,954.28
2022-10-05T00:48:49.169Z,954.29
2022-10-05T00:48:59.194Z,954.29
2022-10-05T00:49:09.189Z,954.30
2022-10-05T00:49:19.195Z,954.29
2022-10-05T00:49:29.192Z,954.29
2022-10-05T00:49:39.192Z,954.29
2022-10-05T00:49:49.174Z,954.29
2022-10-05T00:49:59.192Z,954.29
2022-10-05T00:50:09.195Z,954.30
2022-10-05T00:50:19.196Z,954.30
2022-10-05T00:50:29.197Z,954.30
2022-10-05T00:50:39.196Z,954.29
2022-10-05T00:50:49.197Z,954.29
2022-10-05T00:50:59.197Z,954.30
2022-10-05T00:51:09.198Z,954.30
2022-10-05T00:51:19.200Z,954.31
2022-10-05T00:51:29.216Z,954.31
2022-10-05T00:51:39.200Z,954.32
2022-10-05T00:51:49.203Z,954.33
2022-10-05T00:51:59.207Z,954.33
2022-10-05T00:52:09.203Z,954.32
2022-10-05T00:52:19.204Z,954.33
2022-10-05T00:52:29.206Z,954.32
2022-10-05T00:52:39.212Z,954.31
2022-10-05T00:52:49.205Z,954.31
2022-10-05T00:52:59.208Z,954.31
2022-10-05T00:53:09.191Z,954.31
2022-10-05T00:53:19.208Z,954.31
2022-10-05T00:53:29.214Z,954.32
2022-10-05T00:53:39.215Z,954.32
2022-10-05T00:53:49.215Z,954.33
2022-10-05T00:53:59.217Z,954.32
2022-10-05T00:54:09.217Z,954.30
2022-10-05T00:54:19.215Z,954.31
2022-10-05T00:54:29.218Z,954.31
2022-10-05T00:54:39.218Z,954.31
2022-10-05T00:54:49.218Z,954.31
2022-10-05T00:54:59.220Z,954.30
2022-10-05T00:55:09.222Z,954.31
2022-10-05T00:55:19.202Z,954.31
2022-10-05T00:55:29.223Z,954.31
2022-10-05T00:55:39.222Z,954.31
2022-10-05T00:55:49.227Z,954.33
2022-10-05T00:55:59.226Z,954.32
2022-10-05T00:56:09.226Z,954.32
2022-10-05T00:56:19.225Z,954.33
2022-10-05T00:56:29.229Z,954.33
2022-10-05T00:56:39.228Z,954.33
2022-10-05T00:56:49.251Z,954.33
2022-10-05T00:56:59.229Z,954.33
2022-10-05T00:57:09.230Z,954.33
2022-10-05T00:57:19.231Z,954.32
2022-10-05T00:57:29.234Z,954.32
2022-10-05T00:57:39.233Z,954.33
2022-10-05T00:57:49.234Z,954.33
2022-10-05T00:57:59.235Z,954.33
2022-10-05T00:58:09.241Z,954.32
2022-10-05T00:58:19.236Z,954.33
2022-10-05T00:58:29.238Z,954.33
2022-10-05T00:58:39.240Z,954.33
2022-10-05T00:58:49.240Z,954.34
2022-10-05T00:58:59.240Z,954.34
2022-10-05T00:59:09.242Z,954.33
2022-10-05T00:59:19.244Z,954.32
2022-10-05T00:59:29.243Z,954.32
2022-10-05T00:59:39.242Z,954.32
2022-10-05T00:59:49.246Z,954.31
2022-10-05T00:59:59.248Z,954.31
2022-10-05T01:00:09.250Z,954.30
2022-10-05T01:00:19.247Z,954.29
2022-10-05T01:00:29.251Z,954.29
2022-10-05T01:00:39.254Z,954.29
2022-10-05T01:00:49.288Z,954.27
2022-10-05T01:00:59.300Z,954.26
2022-10-05T01:01:09.327Z,954.26
2022-10-05T01:01:19.358Z,954.26
2022-10-05T01:01:29.365Z,954.25
2022-10-05T01:01:39.331Z,954.24
2022-10-05T01:01:49.335Z,954.23
2022-10-05T01:01:59.283Z,954.23
2022-10-05T01:02:09.318Z,954.23
2022-10-05T01:02:19.303Z,954.21
2022-10-05T01:02:33.006Z,954.20
2022-10-05T01:02:40.306Z,954.19
2022-10-05T01:02:49.293Z,954.19
2022-10-05T01:02:59.262Z,954.19
2022-10-05T01:03:09.267Z,954.18
2022-10-05T01:03:19.268Z,954.18
2022-10-05T01:03:29.270Z,954.17
2022-10-05T01:03:39.266Z,954.18
2022-10-05T01:03:49.268Z,954.18
2022-10-05T01:03:59.268Z,954.17
2022-10-05T01:04:09.267Z,954.17
2022-10-05T01:04:19.269Z,954.17
2022-10-05T01:04:29.268Z,954.17
2022-10-05T01:04:39.272Z,954.17
2022-10-05T01:04:49.276Z,954.17
2022-10-05T01:04:59.273Z,954.16
2022-10-05T01:05:09.274Z,954.14
2022-10-05T01:05:19.272Z,954.14
2022-10-05T01:05:29.272Z,954.15
2022-10-05T01:05:39.274Z,954.16
2022-10-05T01:05:49.277Z,954.16
2022-10-05T01:05:59.275Z,954.16
2022-10-05T01:06:09.281Z,954.16
2022-10-05T01:06:19.277Z,954.16
2022-10-05T01:06:29.283Z,954.15
2022-10-05T01:06:39.279Z,954.14
2022-10-05T01:06:49.279Z,954.14
2022-10-05T01:06:59.281Z,954.14
2022-10-05T01:07:09.283Z,954.13
2022-10-05T01:07:19.285Z,954.13
2022-10-05T01:07:29.282Z,954.13
2022-10-05T01:07:39.289Z,954.12
2022-10-05T01:07:49.287Z,954.11
2022-10-05T01:07:59.289Z,954.10
2022-10-05T01:08:09.299Z,954.09
2022-10-05T01:08:19.291Z,954.09
2022-10-05T01:08:29.290Z,954.09
2022-10-05T01:08:39.291Z,954.10
2022-10-05T01:08:49.292Z,954.10
2022-10-05T01:08:59.295Z,954.09
2022-10-05T01:09:09.295Z,954.08
2022-10-05T01:09:19.307Z,954.07
2022-10-05T01:09:29.296Z,954.05
2022-10-05T01:09:39.297Z,954.05
2022-10-05T01:09:49.297Z,954.05
2022-10-05T01:09:59.303Z,954.05
2022-10-05T01:10:09.299Z,954.04
2022-10-05T01:10:19.300Z,954.04
2022-10-05T01:10:29.319Z,954.02
2022-10-05T01:10:39.302Z,954.02
2022-10-05T01:10:49.305Z,954.01
2022-10-05T01:10:59.305Z,954.01
2022-10-05T01:11:09.306Z,954.01
2022-10-05T01:11:19.308Z,954.01
2022-10-05T01:11:29.309Z,953.99
2022-10-05T01:11:39.309Z,953.99
2022-10-05T01:11:49.310Z,953.99
2022-10-05T01:11:59.312Z,954.00
2022-10-05T01:12:09.311Z,954.00
2022-10-05T01:12:19.314Z,953.98
2022-10-05T01:12:29.313Z,953.99
2022-10-05T01:12:39.315Z,953.98
2022-10-05T01:12:49.315Z,953.98
2022-10-05T01:12:59.317Z,953.98
2022-10-05T01:13:09.314Z,953.98
2022-10-05T01:13:19.317Z,953.99
2022-10-05T01:13:29.318Z,953.99
2022-10-05T01:13:39.315Z,953.99
2022-10-05T01:13:49.316Z,954.00
2022-10-05T01:13:59.318Z,954.00
2022-10-05T01:14:09.319Z,954.00
2022-10-05T01:14:19.319Z,953.99
2022-10-05T01:14:29.319Z,953.99
2022-10-05T01:14:39.321Z,953.99
2022-10-05T01:14:49.320Z,953.99
2022-10-05T01:14:59.323Z,953.99
2022-10-05T01:15:09.322Z,953.98
2022-10-05T01:15:19.331Z,953.98
2022-10-05T01:15:29.338Z,953.99
2022-10-05T01:15:39.327Z,953.99
2022-10-05T01:15:49.329Z,953.98
2022-10-05T01:15:59.375Z,953.98
2022-10-05T01:16:09.380Z,953.98
2022-10-05T01:16:19.376Z,953.96
2022-10-05T01:16:29.398Z,953.96
2022-10-05T01:16:39.379Z,953.96
2022-10-05T01:16:49.852Z,953.96
2022-10-05T01:16:59.381Z,953.95
2022-10-05T01:17:09.333Z,953.95
2022-10-05T01:17:19.334Z,953.95
2022-10-05T01:17:29.334Z,953.95
2022-10-05T01:17:39.334Z,953.96
2022-10-05T01:17:49.340Z,953.94
2022-10-05T01:17:59.338Z,953.94
2022-10-05T01:18:09.338Z,953.93
2022-10-05T01:18:19.341Z,953.93
2022-10-05T01:18:29.347Z,953.92
2022-10-05T01:18:39.344Z,953.93
2022-10-05T01:18:49.344Z,953.94
2022-10-05T01:18:59.344Z,953.94
2022-10-05T01:19:09.346Z,953.94
2022-10-05T01:19:19.347Z,953.94
2022-10-05T01:19:29.349Z,953.95
2022-10-05T01:19:39.349Z,953.95
2022-10-05T01:19:49.352Z,953.96
2022-10-05T01:19:59.352Z,953.97
2022-10-05T01:20:09.351Z,953.98
2022-10-05T01:20:19.354Z,953.98
2022-10-05T01:20:29.355Z,953.98
2022-10-05T01:20:39.362Z,953.98
2022-10-05T01:20:49.362Z,953.99
2022-10-05T01:20:59.360Z,953.98
2022-10-05T01:21:09.356Z,953.98
2022-10-05T01:21:19.340Z,953.98
2022-10-05T01:21:29.359Z,953.97
2022-10-05T01:21:39.359Z,953.96
2022-10-05T01:21:49.360Z,953.95
2022-10-05T01:21:59.363Z,953.95
2022-10-05T01:22:09.365Z,953.95
2022-10-05T01:22:19.363Z,953.94
2022-10-05T01:22:29.366Z,953.94
2022-10-05T01:22:39.365Z,953.93
2022-10-05T01:22:49.369Z,953.93
2022-10-05T01:22:59.366Z,953.94
2022-10-05T01:23:09.369Z,953.94
2022-10-05T01:23:19.368Z,953.94
2022-10-05T01:23:29.369Z,953.94
2022-10-05T01:23:39.351Z,953.93
2022-10-05T01:23:49.372Z,953.93
2022-10-05T01:23:59.372Z,953.93
2022-10-05T01:24:09.372Z,953.95
2022-10-05T01:24:19.374Z,953.97
2022-10-05T01:24:29.374Z,953.96
2022-10-05T01:24:39.374Z,953.95
2022-10-05T01:24:49.376Z,953.96
2022-10-05T01:24:59.379Z,953.97
2022-10-05T01:25:09.379Z,953.97
2022-10-05T01:25:19.380Z,953.96
2022-10-05T01:25:29.381Z,953.97
2022-10-05T01:25:39.385Z,953.98
2022-10-05T01:25:49.370Z,953.98
2022-10-05T01:25:59.386Z,953.98
2022-10-05T01:26:09.386Z,953.98
2022-10-05T01:26:19.385Z,953.97
2022-10-05T01:26:29.387Z,953.97
2022-10-05T01:26:39.388Z,953.97
2022-10-05T01:26:49.712Z,953.96
2022-10-05T01:26:59.391Z,953.96
2022-10-05T01:27:09.393Z,953.96
2022-10-05T01:27:19.393Z,953.96
2022-10-05T01:27:29.398Z,953.96
2022-10-05T01:27:39.398Z,953.95
2022-10-05T01:27:49.395Z,953.95
2022-10-05T01:27:59.459Z,953.94
2022-10-05T01:28:09.434Z,953.93
2022-10-05T01:28:19.465Z,953.92
2022-10-05T01:28:29.524Z,953.91
2022-10-05T01:28:39.401Z,953.92
2022-10-05T01:28:49.401Z,953.91
2022-10-05T01:28:59.400Z,953.92
2022-10-05T01:29:09.533Z,953.91
2022-10-05T01:29:19.401Z,953.92
2022-10-05T01:29:29.405Z,953.93
2022-10-05T01:29:39.390Z,953.93
2022-10-05T01:29:49.408Z,953.93
2022-10-05T01:29:59.407Z,953.92
2022-10-05T01:30:09.406Z,953.92
2022-10-05T01:30:19.406Z,953.92
2022-10-05T01:30:29.389Z,953.92
2022-10-05T01:30:39.418Z,953.92
2022-10-05T01:30:49.412Z,953.92
2022-10-05T01:30:59.408Z,953.92
2022-10-05T01:31:09.450Z,953.92
2022-10-05T01:31:19.534Z,953.92
2022-10-05T01:31:29.465Z,953.92
2022-10-05T01:31:39.431Z,953.93
2022-10-05T01:31:49.470Z,953.93
2022-10-05T01:31:59.475Z,953.93
2022-10-05T01:32:09.413Z,953.93
2022-10-05T01:32:19.422Z,953.93
2022-10-05T01:32:29.417Z,953.93
2022-10-05T01:32:39.398Z,953.94
2022-10-05T01:32:49.419Z,953.94
2022-10-05T01:32:59.418Z,953.95
2022-10-05T01:33:09.419Z,953.98
2022-10-05T01:33:19.421Z,953.99
2022-10-05T01:33:29.422Z,953.99
2022-10-05T01:33:39.422Z,954.00
2022-10-05T01:33:49.423Z,953.99
2022-10-05T01:33:59.426Z,953.99
2022-10-05T01:34:11.635Z,954.00
2022-10-05T01:34:19.426Z,953.99
2022-10-05T01:34:29.427Z,953.99
2022-10-05T01:34:39.446Z,954.00
2022-10-05T01:34:49.430Z,953.99
2022-10-05T01:34:59.412Z,953.99
2022-10-05T01:35:09.429Z,954.00
2022-10-05T01:35:19.431Z,954.02
2022-10-05T01:35:29.434Z,954.00
2022-10-05T01:35:39.433Z,953.99
2022-10-05T01:35:49.440Z,953.98
2022-10-05T01:35:59.437Z,953.97
2022-10-05T01:36:09.442Z,953.97
2022-10-05T01:36:19.440Z,953.98
2022-10-05T01:36:29.439Z,953.97
2022-10-05T01:36:39.439Z,953.96
2022-10-05T01:36:49.641Z,953.95
2022-10-05T01:36:59.440Z,953.94
2022-10-05T01:37:09.443Z,953.93
2022-10-05T01:37:19.441Z,953.93
2022-10-05T01:37:29.444Z,953.93
2022-10-05T01:37:39.454Z,953.92
2022-10-05T01:37:49.444Z,953.92
2022-10-05T01:37:59.459Z,953.92
2022-10-05T01:38:09.447Z,953.91
2022-10-05T01:38:19.449Z,953.91
2022-10-05T01:38:29.448Z,953.90
2022-10-05T01:38:39.450Z,953.89
2022-10-05T01:38:49.450Z,953.88
2022-10-05T01:38:59.450Z,953.87
2022-10-05T01:39:10.250Z,953.86
2022-10-05T01:39:19.453Z,953.87
2022-10-05T01:39:29.452Z,953.86
2022-10-05T01:39:39.454Z,953.85
2022-10-05T01:39:49.455Z,953.84
2022-10-05T01:39:59.457Z,953.82
2022-10-05T01:40:09.462Z,953.82
2022-10-05T01:40:19.459Z,953.81
2022-10-05T01:40:29.468Z,953.81
2022-10-05T01:40:39.463Z,953.82
2022-10-05T01:40:49.467Z,953.82
2022-10-05T01:40:59.462Z,953.81
2022-10-05T01:41:09.465Z,953.82
2022-10-05T01:41:19.463Z,953.81
2022-10-05T01:41:29.466Z,953.81
2022-10-05T01:41:39.466Z,953.79
2022-10-05T01:41:49.469Z,953.80
2022-10-05T01:41:59.471Z,953.80
2022-10-05T01:42:09.469Z,953.80
2022-10-05T01:42:19.473Z,953.79
2022-10-05T01:42:29.492Z,953.79
2022-10-05T01:42:39.473Z,953.80
2022-10-05T01:42:49.474Z,953.79
2022-10-05T01:42:59.475Z,953.78
2022-10-05T01:43:09.475Z,953.77
2022-10-05T01:43:19.480Z,953.78
2022-10-05T01:43:29.479Z,953.77
2022-10-05T01:43:39.479Z,953.77
2022-10-05T01:43:49.480Z,953.77
2022-10-05T01:43:59.482Z,953.77
2022-10-05T01:44:10.255Z,953.77
2022-10-05T01:44:19.483Z,953.77
2022-10-05T01:44:29.486Z,953.76
2022-10-05T01:44:39.484Z,953.77
2022-10-05T01:44:49.486Z,953.77
2022-10-05T01:44:59.486Z,953.76
2022-10-05T01:45:09.490Z,953.76
2022-10-05T01:45:19.489Z,953.75
2022-10-05T01:45:29.514Z,953.75
2022-10-05T01:45:39.540Z,953.76
2022-10-05T01:45:49.537Z,953.75
2022-10-05T01:45:59.549Z,953.73
2022-10-05T01:46:09.591Z,953.73
2022-10-05T01:46:19.520Z,953.74
2022-10-05T01:46:29.502Z,953.73
2022-10-05T01:46:39.496Z,953.73
2022-10-05T01:46:49.638Z,953.73
2022-10-05T01:46:59.498Z,953.73
2022-10-05T01:47:09.505Z,953.72
2022-10-05T01:47:19.498Z,953.72
2022-10-05T01:47:29.499Z,953.71
2022-10-05T01:47:39.499Z,953.71
2022-10-05T01:47:49.502Z,953.71
2022-10-05T01:47:59.504Z,953.71
2022-10-05T01:48:09.503Z,953.71
2022-10-05T01:48:19.503Z,953.71
2022-10-05T01:48:29.502Z,953.70
2022-10-05T01:48:39.505Z,953.70
2022-10-05T01:48:49.505Z,953.71
2022-10-05T01:48:59.504Z,953.71
2022-10-05T01:49:10.254Z,953.71
2022-10-05T01:49:19.489Z,953.72
2022-10-05T01:49:29.508Z,953.73
2022-10-05T01:49:39.508Z,953.74
2022-10-05T01:49:49.509Z,953.74
2022-10-05T01:49:59.509Z,953.75
2022-10-05T01:50:09.511Z,953.76
2022-10-05T01:50:19.512Z,953.77
2022-10-05T01:50:29.514Z,953.78
2022-10-05T01:50:39.514Z,953.77
2022-10-05T01:50:49.520Z,953.78
2022-10-05T01:50:59.517Z,953.79
2022-10-05T01:51:09.518Z,953.80
2022-10-05T01:51:19.519Z,953.80
2022-10-05T01:51:29.520Z,953.81
2022-10-05T01:51:39.521Z,953.80
2022-10-05T01:51:49.522Z,953.81
2022-10-05T01:51:59.524Z,953.80
2022-10-05T01:52:09.525Z,953.80
2022-10-05T01:52:19.526Z,953.80
2022-10-05T01:52:29.530Z,953.80
2022-10-05T01:52:39.526Z,953.81
2022-10-05T01:52:49.530Z,953.82
2022-10-05T01:52:59.539Z,953.82
2022-10-05T01:53:09.513Z,953.82
2022-10-05T01:53:19.533Z,953.82
2022-10-05T01:53:29.532Z,953.82
2022-10-05T01:53:39.535Z,953.82
2022-10-05T01:53:49.533Z,953.83
2022-10-05T01:53:59.537Z,953.83
2022-10-05T01:54:09.547Z,953.83
2022-10-05T01:54:19.538Z,953.83
2022-10-05T01:54:29.542Z,953.83
2022-10-05T01:54:39.537Z,953.82
2022-10-05T01:54:49.520Z,953.82
2022-10-05T01:54:59.541Z,953.82
2022-10-05T01:55:09.541Z,953.82
2022-10-05T01:55:19.525Z,953.82
2022-10-05T01:55:29.544Z,953.82
2022-10-05T01:55:39.545Z,953.82
2022-10-05T01:55:49.530Z,953.82
2022-10-05T01:55:59.547Z,953.81
2022-10-05T01:56:09.548Z,953.82
2022-10-05T01:56:19.549Z,953.83
2022-10-05T01:56:29.549Z,953.83
2022-10-05T01:56:39.551Z,953.84
2022-10-05T01:56:49.616Z,953.85
2022-10-05T01:56:59.558Z,953.84
2022-10-05T01:57:09.555Z,953.83
2022-10-05T01:57:19.554Z,953.84
2022-10-05T01:57:29.556Z,953.84
2022-10-05T01:57:39.555Z,953.83
2022-10-05T01:57:49.557Z,953.83
2022-10-05T01:57:59.565Z,953.83
2022-10-05T01:58:09.540Z,953.82
2022-10-05T01:58:19.559Z,953.82
2022-10-05T01:58:29.560Z,953.83
2022-10-05T01:58:39.559Z,953.82
2022-10-05T01:58:49.559Z,953.80
2022-10-05T01:58:59.562Z,953.80
2022-10-05T01:59:09.562Z,953.80
2022-10-05T01:59:19.563Z,953.80
2022-10-05T01:59:29.566Z,953.79
2022-10-05T01:59:39.565Z,953.79
2022-10-05T01:59:49.567Z,953.78
2022-10-05T01:59:59.567Z,953.78
2022-10-05T02:00:09.568Z,953.78
2022-10-05T02:00:19.552Z,953.78
2022-10-05T02:00:29.568Z,953.79
2022-10-05T02:00:39.742Z,953.79
2022-10-05T02:00:49.596Z,953.79
2022-10-05T02:00:59.683Z,953.79
2022-10-05T02:01:09.633Z,953.79
2022-10-05T02:01:19.667Z,953.79
2022-10-05T02:01:29.618Z,953.77
2022-10-05T02:01:39.575Z,953.78
2022-10-05T02:01:49.638Z,953.78
2022-10-05T02:01:59.612Z,953.77
2022-10-05T02:02:09.607Z,953.78
2022-10-05T02:02:19.599Z,953.78
2022-10-05T02:02:29.618Z,953.78
2022-10-05T02:02:39.659Z,953.77
2022-10-05T02:02:49.582Z,953.77
2022-10-05T02:02:59.590Z,953.78
2022-10-05T02:03:09.584Z,953.78
2022-10-05T02:03:19.585Z,953.79
2022-10-05T02:03:29.590Z,953.78
2022-10-05T02:03:39.589Z,953.78
2022-10-05T02:03:49.592Z,953.78
2022-10-05T02:03:59.590Z,953.79
2022-10-05T02:04:09.715Z,953.78
2022-10-05T02:04:42.779Z,953.79
2022-10-05T02:05:00.361Z,953.79
2022-10-05T02:05:01.383Z,953.78
2022-10-05T02:05:02.114Z,953.78